sensor_id;sensor_type;location;lat;lon;timestamp;pressure;altitude;pressure_sealevel;temperature
37452;BMP280;23314;51.114;6.900;2022-11-27T00:00:20;102373.59;;;5.87
37452;BMP280;23314;51.114;6.900;2022-11-27T00:02:45;102362.19;;;5.86
37452;BMP280;23314;51.114;6.900;2022-11-27T00:05:10;102357.69;;;5.87
37452;BMP280;23314;51.114;6.900;2022-11-27T00:07:36;102353.59;;;5.89
37452;BMP280;23314;51.114;6.900;2022-11-27T00:10:02;102346.13;;;5.91
37452;BMP280;23314;51.114;6.900;2022-11-27T00:12:27;102343.47;;;5.91
37452;BMP280;23314;51.114;6.900;2022-11-27T00:14:53;102356.38;;;5.93
37452;BMP280;23314;51.114;6.900;2022-11-27T00:17:18;102346.56;;;5.93
37452;BMP280;23314;51.114;6.900;2022-11-27T00:19:43;102345.78;;;5.93
37452;BMP280;23314;51.114;6.900;2022-11-27T00:22:08;102343.13;;;5.93
37452;BMP280;23314;51.114;6.900;2022-11-27T00:24:34;102346.13;;;5.91
37452;BMP280;23314;51.114;6.900;2022-11-27T00:26:59;102349.97;;;5.94
37452;BMP280;23314;51.114;6.900;2022-11-27T00:29:24;102345.94;;;5.96
37452;BMP280;23314;51.114;6.900;2022-11-27T00:31:54;102345.59;;;5.98
37452;BMP280;23314;51.114;6.900;2022-11-27T00:34:20;102326.28;;;5.97
37452;BMP280;23314;51.114;6.900;2022-11-27T00:36:45;102331.59;;;5.97
37452;BMP280;23314;51.114;6.900;2022-11-27T00:39:10;102333.91;;;5.99
37452;BMP280;23314;51.114;6.900;2022-11-27T00:41:36;102330.13;;;6.00
37452;BMP280;23314;51.114;6.900;2022-11-27T00:44:02;102328.25;;;6.01
37452;BMP280;23314;51.114;6.900;2022-11-27T00:46:31;102328.25;;;6.01
37452;BMP280;23314;51.114;6.900;2022-11-27T00:48:59;102317.66;;;6.01
37452;BMP280;23314;51.114;6.900;2022-11-27T00:51:25;102316.53;;;6.02
37452;BMP280;23314;51.114;6.900;2022-11-27T00:53:51;102320.66;;;5.99
37452;BMP280;23314;51.114;6.900;2022-11-27T00:56:19;102320.31;;;6.01
37452;BMP280;23314;51.114;6.900;2022-11-27T00:58:45;102320.44;;;6.04
37452;BMP280;23314;51.114;6.900;2022-11-27T01:01:17;102319.66;;;6.04
37452;BMP280;23314;51.114;6.900;2022-11-27T01:03:43;102316.22;;;6.03
37452;BMP280;23314;51.114;6.900;2022-11-27T01:06:08;102310.59;;;6.05
37452;BMP280;23314;51.114;6.900;2022-11-27T01:08:34;102312.16;;;6.06
37452;BMP280;23314;51.114;6.900;2022-11-27T01:10:59;102312.94;;;6.06
37452;BMP280;23314;51.114;6.900;2022-11-27T01:13:27;102326.63;;;6.08
37452;BMP280;23314;51.114;6.900;2022-11-27T01:16:06;102316.03;;;6.08
37452;BMP280;23314;51.114;6.900;2022-11-27T01:18:34;102317.59;;;6.09
37452;BMP280;23314;51.114;6.900;2022-11-27T01:21:00;102321.78;;;6.10
37452;BMP280;23314;51.114;6.900;2022-11-27T01:23:26;102321.00;;;6.10
37452;BMP280;23314;51.114;6.900;2022-11-27T01:25:52;102325.19;;;6.11
37452;BMP280;23314;51.114;6.900;2022-11-27T01:28:20;102324.44;;;6.10
37452;BMP280;23314;51.114;6.900;2022-11-27T01:30:45;102322.88;;;6.09
37452;BMP280;23314;51.114;6.900;2022-11-27T01:33:11;102325.84;;;6.08
37452;BMP280;23314;51.114;6.900;2022-11-27T01:35:36;102321.34;;;6.08
37452;BMP280;23314;51.114;6.900;2022-11-27T01:38:02;102324.00;;;6.08
37452;BMP280;23314;51.114;6.900;2022-11-27T01:40:28;102319.44;;;6.09
37452;BMP280;23314;51.114;6.900;2022-11-27T01:42:54;102325.53;;;6.09
37452;BMP280;23314;51.114;6.900;2022-11-27T01:45:20;102316.03;;;6.08
37452;BMP280;23314;51.114;6.900;2022-11-27T01:47:50;102316.34;;;6.07
37452;BMP280;23314;51.114;6.900;2022-11-27T01:50:19;102314.16;;;6.09
37452;BMP280;23314;51.114;6.900;2022-11-27T01:52:49;102304.66;;;6.08
37452;BMP280;23314;51.114;6.900;2022-11-27T01:55:20;102298.69;;;6.11
37452;BMP280;23314;51.114;6.900;2022-11-27T01:57:51;102284.03;;;6.13
37452;BMP280;23314;51.114;6.900;2022-11-27T02:00:18;102288.97;;;6.15
37452;BMP280;23314;51.114;6.900;2022-11-27T02:02:44;102281.78;;;6.15
37452;BMP280;23314;51.114;6.900;2022-11-27T02:05:17;102286.00;;;6.17
37452;BMP280;23314;51.114;6.900;2022-11-27T02:07:43;102282.88;;;6.14
37452;BMP280;23314;51.114;6.900;2022-11-27T02:10:11;102275.72;;;6.15
37452;BMP280;23314;51.114;6.900;2022-11-27T02:12:51;102271.56;;;6.14
37452;BMP280;23314;51.114;6.900;2022-11-27T02:23:35;102255.84;;;6.09
37452;BMP280;23314;51.114;6.900;2022-11-27T02:29:07;102254.09;;;6.01
37452;BMP280;23314;51.114;6.900;2022-11-27T02:31:47;102266.13;;;5.98
37452;BMP280;23314;51.114;6.900;2022-11-27T02:34:31;102265.56;;;5.92
37452;BMP280;23314;51.114;6.900;2022-11-27T02:37:44;102269.19;;;5.88
37452;BMP280;23314;51.114;6.900;2022-11-27T02:40:12;102272.16;;;5.86
37452;BMP280;23314;51.114;6.900;2022-11-27T02:42:48;102270.97;;;5.83
37452;BMP280;23314;51.114;6.900;2022-11-27T02:45:18;102269.72;;;5.81
37452;BMP280;23314;51.114;6.900;2022-11-27T02:47:46;102258.25;;;5.77
37452;BMP280;23314;51.114;6.900;2022-11-27T02:50:16;102251.72;;;5.74
37452;BMP280;23314;51.114;6.900;2022-11-27T02:52:44;102236.47;;;5.71
37452;BMP280;23314;51.114;6.900;2022-11-27T02:55:14;102225.09;;;5.71
37452;BMP280;23314;51.114;6.900;2022-11-27T02:57:41;102217.06;;;5.67
37452;BMP280;23314;51.114;6.900;2022-11-27T03:00:09;102215.84;;;5.64
37452;BMP280;23314;51.114;6.900;2022-11-27T03:02:40;102214.94;;;5.60
37452;BMP280;23314;51.114;6.900;2022-11-27T03:05:10;102215.59;;;5.57
37452;BMP280;23314;51.114;6.900;2022-11-27T03:07:48;102233.22;;;5.53
37452;BMP280;23314;51.114;6.900;2022-11-27T03:10:21;102222.22;;;5.51
37452;BMP280;23314;51.114;6.900;2022-11-27T03:12:48;102216.47;;;5.49
37452;BMP280;23314;51.114;6.900;2022-11-27T03:15:14;102206.19;;;5.47
37452;BMP280;23314;51.114;6.900;2022-11-27T03:17:43;102191.84;;;5.48
37452;BMP280;23314;51.114;6.900;2022-11-27T03:20:16;102192.97;;;5.47
37452;BMP280;23314;51.114;6.900;2022-11-27T03:22:43;102189.53;;;5.47
37452;BMP280;23314;51.114;6.900;2022-11-27T03:25:09;102188.75;;;5.46
37452;BMP280;23314;51.114;6.900;2022-11-27T03:27:39;102186.44;;;5.45
37452;BMP280;23314;51.114;6.900;2022-11-27T03:30:07;102186.00;;;5.43
37452;BMP280;23314;51.114;6.900;2022-11-27T03:32:33;102195.16;;;5.45
37452;BMP280;23314;51.114;6.900;2022-11-27T03:34:59;102208.06;;;5.47
37452;BMP280;23314;51.114;6.900;2022-11-27T03:37:25;102201.34;;;5.49
37452;BMP280;23314;51.114;6.900;2022-11-27T03:39:52;102195.03;;;5.54
37452;BMP280;23314;51.114;6.900;2022-11-27T03:42:29;102187.56;;;5.56
37452;BMP280;23314;51.114;6.900;2022-11-27T03:45:34;102193.31;;;5.58
37452;BMP280;23314;51.114;6.900;2022-11-27T03:58:53;102184.59;;;5.70
37452;BMP280;23314;51.114;6.900;2022-11-27T04:01:22;102193.91;;;5.76
37452;BMP280;23314;51.114;6.900;2022-11-27T04:03:49;102197.91;;;5.82
37452;BMP280;23314;51.114;6.900;2022-11-27T04:06:14;102179.88;;;5.88
37452;BMP280;23314;51.114;6.900;2022-11-27T04:08:39;102186.84;;;5.93
37452;BMP280;23314;51.114;6.900;2022-11-27T04:11:05;102184.78;;;5.98
37452;BMP280;23314;51.114;6.900;2022-11-27T04:13:30;102180.00;;;6.04
37452;BMP280;23314;51.114;6.900;2022-11-27T04:15:59;102176.81;;;6.11
37452;BMP280;23314;51.114;6.900;2022-11-27T04:18:25;102175.03;;;6.15
37452;BMP280;23314;51.114;6.900;2022-11-27T04:20:50;102157.03;;;6.21
37452;BMP280;23314;51.114;6.900;2022-11-27T04:23:16;102158.72;;;6.25
37452;BMP280;23314;51.114;6.900;2022-11-27T04:25:41;102166.75;;;6.29
37452;BMP280;23314;51.114;6.900;2022-11-27T04:28:06;102150.19;;;6.32
37452;BMP280;23314;51.114;6.900;2022-11-27T04:30:31;102147.31;;;6.37
37452;BMP280;23314;51.114;6.900;2022-11-27T04:32:57;102134.16;;;6.41
37452;BMP280;23314;51.114;6.900;2022-11-27T04:35:22;102127.75;;;6.42
37452;BMP280;23314;51.114;6.900;2022-11-27T04:37:47;102124.75;;;6.43
37452;BMP280;23314;51.114;6.900;2022-11-27T04:40:13;102111.94;;;6.45
37452;BMP280;23314;51.114;6.900;2022-11-27T04:42:38;102110.06;;;6.46
37452;BMP280;23314;51.114;6.900;2022-11-27T04:45:04;102116.56;;;6.49
37452;BMP280;23314;51.114;6.900;2022-11-27T04:47:29;102113.25;;;6.52
37452;BMP280;23314;51.114;6.900;2022-11-27T04:49:55;102111.34;;;6.52
37452;BMP280;23314;51.114;6.900;2022-11-27T04:52:20;102106.06;;;6.52
37452;BMP280;23314;51.114;6.900;2022-11-27T04:54:45;102105.41;;;6.55
37452;BMP280;23314;51.114;6.900;2022-11-27T04:57:11;102114.13;;;6.56
37452;BMP280;23314;51.114;6.900;2022-11-27T04:59:36;102115.00;;;6.60
37452;BMP280;23314;51.114;6.900;2022-11-27T05:02:02;102115.41;;;6.62
37452;BMP280;23314;51.114;6.900;2022-11-27T05:04:27;102123.78;;;6.64
37452;BMP280;23314;51.114;6.900;2022-11-27T05:06:53;102119.72;;;6.67
37452;BMP280;23314;51.114;6.900;2022-11-27T05:09:18;102122.81;;;6.69
37452;BMP280;23314;51.114;6.900;2022-11-27T05:11:44;102102.34;;;6.69
37452;BMP280;23314;51.114;6.900;2022-11-27T05:14:10;102107.75;;;6.73
37452;BMP280;23314;51.114;6.900;2022-11-27T05:16:47;102108.16;;;6.75
37452;BMP280;23314;51.114;6.900;2022-11-27T05:19:14;102104.09;;;6.77
37452;BMP280;23314;51.114;6.900;2022-11-27T05:21:41;102104.09;;;6.77
37452;BMP280;23314;51.114;6.900;2022-11-27T05:24:06;102106.41;;;6.79
37452;BMP280;23314;51.114;6.900;2022-11-27T05:26:32;102096.56;;;6.80
37452;BMP280;23314;51.114;6.900;2022-11-27T05:28:57;102097.34;;;6.80
37452;BMP280;23314;51.114;6.900;2022-11-27T05:31:23;102092.81;;;6.81
37452;BMP280;23314;51.114;6.900;2022-11-27T05:33:48;102096.63;;;6.83
37452;BMP280;23314;51.114;6.900;2022-11-27T05:36:14;102089.47;;;6.84
37452;BMP280;23314;51.114;6.900;2022-11-27T05:38:39;102090.22;;;6.84
37452;BMP280;23314;51.114;6.900;2022-11-27T05:41:04;102086.81;;;6.84
37452;BMP280;23314;51.114;6.900;2022-11-27T05:43:30;102090.66;;;6.86
37452;BMP280;23314;51.114;6.900;2022-11-27T05:45:55;102073.63;;;6.87
37452;BMP280;23314;51.114;6.900;2022-11-27T05:48:20;102070.63;;;6.89
37452;BMP280;23314;51.114;6.900;2022-11-27T05:50:46;102073.72;;;6.91
37452;BMP280;23314;51.114;6.900;2022-11-27T05:53:11;102065.00;;;6.90
37452;BMP280;23314;51.114;6.900;2022-11-27T05:55:36;102071.06;;;6.91
37452;BMP280;23314;51.114;6.900;2022-11-27T05:58:02;102076.06;;;6.92
37452;BMP280;23314;51.114;6.900;2022-11-27T06:00:27;102072.63;;;6.92
37452;BMP280;23314;51.114;6.900;2022-11-27T06:02:53;102064.66;;;6.92
37452;BMP280;23314;51.114;6.900;2022-11-27T06:05:19;102058.25;;;6.93
37452;BMP280;23314;51.114;6.900;2022-11-27T06:07:44;102058.25;;;6.93
37452;BMP280;23314;51.114;6.900;2022-11-27T06:10:10;102056.38;;;6.93
37452;BMP280;23314;51.114;6.900;2022-11-27T06:12:35;102059.47;;;6.96
37452;BMP280;23314;51.114;6.900;2022-11-27T06:15:00;102054.53;;;6.98
37452;BMP280;23314;51.114;6.900;2022-11-27T06:17:26;102043.94;;;6.98
37452;BMP280;23314;51.114;6.900;2022-11-27T06:19:51;102051.22;;;7.01
37452;BMP280;23314;51.114;6.900;2022-11-27T06:22:17;102044.81;;;7.02
37452;BMP280;23314;51.114;6.900;2022-11-27T06:24:42;102036.53;;;7.03
37452;BMP280;23314;51.114;6.900;2022-11-27T06:27:07;102037.72;;;7.06
37452;BMP280;23314;51.114;6.900;2022-11-27T06:29:33;102029.75;;;7.06
37452;BMP280;23314;51.114;6.900;2022-11-27T06:31:58;102037.72;;;7.06
37452;BMP280;23314;51.114;6.900;2022-11-27T06:34:23;102032.84;;;7.08
37452;BMP280;23314;51.114;6.900;2022-11-27T06:36:49;102020.75;;;7.11
37452;BMP280;23314;51.114;6.900;2022-11-27T06:39:15;102021.97;;;7.13
37452;BMP280;23314;51.114;6.900;2022-11-27T06:41:40;102014.75;;;7.14
37452;BMP280;23314;51.114;6.900;2022-11-27T06:44:07;102012.53;;;7.16
37452;BMP280;23314;51.114;6.900;2022-11-27T06:46:33;102019.38;;;7.17
37452;BMP280;23314;51.114;6.900;2022-11-27T06:48:59;102009.19;;;7.19
37452;BMP280;23314;51.114;6.900;2022-11-27T06:51:27;102006.56;;;7.19
37452;BMP280;23314;51.114;6.900;2022-11-27T06:53:53;102000.47;;;7.18
37452;BMP280;23314;51.114;6.900;2022-11-27T06:56:21;101997.03;;;7.18
37452;BMP280;23314;51.114;6.900;2022-11-27T06:58:50;101992.53;;;7.18
37452;BMP280;23314;51.114;6.900;2022-11-27T07:01:16;101994.38;;;7.18
37452;BMP280;23314;51.114;6.900;2022-11-27T07:03:42;101997.03;;;7.18
37452;BMP280;23314;51.114;6.900;2022-11-27T07:06:09;101993.97;;;7.16
37452;BMP280;23314;51.114;6.900;2022-11-27T07:08:35;101982.91;;;7.14
37452;BMP280;23314;51.114;6.900;2022-11-27T07:11:06;101986.69;;;7.13
37452;BMP280;23314;51.114;6.900;2022-11-27T07:13:32;101989.31;;;7.13
37452;BMP280;23314;51.114;6.900;2022-11-27T07:16:02;101976.50;;;7.15
37452;BMP280;23314;51.114;6.900;2022-11-27T07:18:29;101967.84;;;7.18
37452;BMP280;23314;51.114;6.900;2022-11-27T07:20:55;101974.38;;;7.20
37452;BMP280;23314;51.114;6.900;2022-11-27T07:23:20;101955.41;;;7.22
37452;BMP280;23314;51.114;6.900;2022-11-27T07:25:46;101950.97;;;7.26
37452;BMP280;23314;51.114;6.900;2022-11-27T07:28:11;101951.84;;;7.30
37452;BMP280;23314;51.114;6.900;2022-11-27T07:30:37;101951.88;;;7.34
37452;BMP280;23314;51.114;6.900;2022-11-27T07:33:03;101948.63;;;7.40
37452;BMP280;23314;51.114;6.900;2022-11-27T07:35:28;101950.59;;;7.44
37452;BMP280;23314;51.114;6.900;2022-11-27T07:37:54;101943.03;;;7.46
37452;BMP280;23314;51.114;6.900;2022-11-27T07:40:19;101937.03;;;7.49
37452;BMP280;23314;51.114;6.900;2022-11-27T07:42:44;101941.66;;;7.52
37452;BMP280;23314;51.114;6.900;2022-11-27T07:45:10;101941.72;;;7.55
37452;BMP280;23314;51.114;6.900;2022-11-27T07:47:36;101946.75;;;7.61
37452;BMP280;23314;51.114;6.900;2022-11-27T07:50:02;101940.75;;;7.64
37452;BMP280;23314;51.114;6.900;2022-11-27T07:52:27;101941.97;;;7.70
37452;BMP280;23314;51.114;6.900;2022-11-27T07:54:53;101928.09;;;7.77
37452;BMP280;23314;51.114;6.900;2022-11-27T07:57:18;101924.38;;;7.81
37452;BMP280;23314;51.114;6.900;2022-11-27T07:59:43;101922.22;;;7.87
37452;BMP280;23314;51.114;6.900;2022-11-27T08:02:12;101922.34;;;7.94
37452;BMP280;23314;51.114;6.900;2022-11-27T08:04:38;101916.41;;;8.01
37452;BMP280;23314;51.114;6.900;2022-11-27T08:07:03;101915.72;;;8.08
37452;BMP280;23314;51.114;6.900;2022-11-27T08:09:29;101913.59;;;8.13
37452;BMP280;23314;51.114;6.900;2022-11-27T08:11:54;101917.53;;;8.23
37452;BMP280;23314;51.114;6.900;2022-11-27T08:14:20;101918.78;;;8.29
37452;BMP280;23314;51.114;6.900;2022-11-27T08:16:46;101922.31;;;8.37
37452;BMP280;23314;51.114;6.900;2022-11-27T08:19:12;101916.00;;;8.45
37452;BMP280;23314;51.114;6.900;2022-11-27T08:21:37;101921.06;;;8.54
37452;BMP280;23314;51.114;6.900;2022-11-27T08:24:03;101918.19;;;8.63
37452;BMP280;23314;51.114;6.900;2022-11-27T08:26:28;101912.22;;;8.73
37452;BMP280;23314;51.114;6.900;2022-11-27T08:28:56;101917.28;;;8.82
37452;BMP280;23314;51.114;6.900;2022-11-27T08:31:21;101910.56;;;8.92
37452;BMP280;23314;51.114;6.900;2022-11-27T08:33:47;101914.91;;;9.04
37452;BMP280;23314;51.114;6.900;2022-11-27T08:36:12;101923.38;;;9.09
37452;BMP280;23314;51.114;6.900;2022-11-27T08:38:38;101937.59;;;9.21
37452;BMP280;23314;51.114;6.900;2022-11-27T08:41:09;101943.81;;;9.32
37452;BMP280;23314;51.114;6.900;2022-11-27T08:43:35;101931.00;;;9.41
37452;BMP280;23314;51.114;6.900;2022-11-27T08:46:05;101942.13;;;9.51
37452;BMP280;23314;51.114;6.900;2022-11-27T08:48:31;101924.31;;;9.55
37452;BMP280;23314;51.114;6.900;2022-11-27T08:50:56;101931.53;;;9.54
37452;BMP280;23314;51.114;6.900;2022-11-27T08:53:21;101926.25;;;9.58
37452;BMP280;23314;51.114;6.900;2022-11-27T08:55:47;101929.31;;;9.60
37452;BMP280;23314;51.114;6.900;2022-11-27T08:58:12;101920.19;;;9.61
37452;BMP280;23314;51.114;6.900;2022-11-27T09:00:38;101922.44;;;9.59
37452;BMP280;23314;51.114;6.900;2022-11-27T09:03:04;101915.56;;;9.58
37452;BMP280;23314;51.114;6.900;2022-11-27T09:05:31;101917.13;;;9.59
37452;BMP280;23314;51.114;6.900;2022-11-27T09:07:57;101916.03;;;9.63
37452;BMP280;23314;51.114;6.900;2022-11-27T09:10:24;101903.50;;;9.68
37452;BMP280;23314;51.114;6.900;2022-11-27T09:12:49;101897.88;;;9.73
37452;BMP280;23314;51.114;6.900;2022-11-27T09:15:15;101887.97;;;9.73
37452;BMP280;23314;51.114;6.900;2022-11-27T09:17:40;101892.16;;;9.74
37452;BMP280;23314;51.114;6.900;2022-11-27T09:20:06;101881.50;;;9.78
37452;BMP280;23314;51.114;6.900;2022-11-27T09:22:33;101888.78;;;9.81
37452;BMP280;23314;51.114;6.900;2022-11-27T09:25:02;101880.03;;;9.84
37452;BMP280;23314;51.114;6.900;2022-11-27T09:27:28;101876.28;;;9.89
37452;BMP280;23314;51.114;6.900;2022-11-27T09:29:56;101877.47;;;9.95
37452;BMP280;23314;51.114;6.900;2022-11-27T09:32:22;101877.16;;;10.00
37452;BMP280;23314;51.114;6.900;2022-11-27T09:34:50;101872.63;;;10.08
37452;BMP280;23314;51.114;6.900;2022-11-27T09:37:16;101877.97;;;10.11
37452;BMP280;23314;51.114;6.900;2022-11-27T09:39:41;101876.91;;;10.20
37452;BMP280;23314;51.114;6.900;2022-11-27T09:42:13;101866.31;;;10.31
37452;BMP280;23314;51.114;6.900;2022-11-27T09:44:45;101866.00;;;10.39
37452;BMP280;23314;51.114;6.900;2022-11-27T09:49:46;101856.91;;;10.44
37452;BMP280;23314;51.114;6.900;2022-11-27T09:52:26;101857.25;;;10.42
37452;BMP280;23314;51.114;6.900;2022-11-27T09:55:00;101850.78;;;10.47
37452;BMP280;23314;51.114;6.900;2022-11-27T09:57:31;101860.38;;;10.55
37452;BMP280;23314;51.114;6.900;2022-11-27T10:00:01;101863.47;;;10.65
37452;BMP280;23314;51.114;6.900;2022-11-27T10:02:30;101850.56;;;10.70
37452;BMP280;23314;51.114;6.900;2022-11-27T10:04:56;101858.97;;;10.76
37452;BMP280;23314;51.114;6.900;2022-11-27T10:10:24;101865.88;;;10.84
37452;BMP280;23314;51.114;6.900;2022-11-27T10:15:47;101851.78;;;10.95
37452;BMP280;23314;51.114;6.900;2022-11-27T10:20:55;101838.84;;;11.00
37452;BMP280;23314;51.114;6.900;2022-11-27T10:26:05;101833.13;;;11.05
37452;BMP280;23314;51.114;6.900;2022-11-27T10:28:37;101820.53;;;11.06
37452;BMP280;23314;51.114;6.900;2022-11-27T10:33:45;101825.16;;;11.20
37452;BMP280;23314;51.114;6.900;2022-11-27T10:36:21;101819.84;;;11.27
37452;BMP280;23314;51.114;6.900;2022-11-27T10:38:50;101819.44;;;11.29
37452;BMP280;23314;51.114;6.900;2022-11-27T10:41:29;101821.38;;;11.32
37452;BMP280;23314;51.114;6.900;2022-11-27T10:43:56;101820.22;;;11.33
37452;BMP280;23314;51.114;6.900;2022-11-27T10:46:30;101816.78;;;11.32
37452;BMP280;23314;51.114;6.900;2022-11-27T10:49:03;101814.13;;;11.39
37452;BMP280;23314;51.114;6.900;2022-11-27T10:51:34;101803.81;;;11.41
37452;BMP280;23314;51.114;6.900;2022-11-27T10:54:03;101790.09;;;11.47
37452;BMP280;23314;51.114;6.900;2022-11-27T10:56:48;101785.09;;;11.52
37452;BMP280;23314;51.114;6.900;2022-11-27T10:59:26;101778.25;;;11.51
37452;BMP280;23314;51.114;6.900;2022-11-27T11:01:55;101786.28;;;11.51
37452;BMP280;23314;51.114;6.900;2022-11-27T11:04:28;101773.66;;;11.52
37452;BMP280;23314;51.114;6.900;2022-11-27T11:06:54;101777.50;;;11.51
37452;BMP280;23314;51.114;6.900;2022-11-27T11:09:25;101771.00;;;11.52
37452;BMP280;23314;51.114;6.900;2022-11-27T11:12:16;101763.38;;;11.50
37452;BMP280;23314;51.114;6.900;2022-11-27T11:14:59;101756.50;;;11.53
37452;BMP280;23314;51.114;6.900;2022-11-27T11:17:31;101747.34;;;11.50
37452;BMP280;23314;51.114;6.900;2022-11-27T11:20:13;101738.91;;;11.48
37452;BMP280;23314;51.114;6.900;2022-11-27T11:22:45;101748.88;;;11.51
37452;BMP280;23314;51.114;6.900;2022-11-27T11:25:15;101733.56;;;11.55
37452;BMP280;23314;51.114;6.900;2022-11-27T11:27:42;101733.19;;;11.53
37452;BMP280;23314;51.114;6.900;2022-11-27T11:30:23;101723.63;;;11.56
37452;BMP280;23314;51.114;6.900;2022-11-27T11:32:50;101722.88;;;11.55
37452;BMP280;23314;51.114;6.900;2022-11-27T11:35:26;101714.47;;;11.57
37452;BMP280;23314;51.114;6.900;2022-11-27T11:37:52;101707.59;;;11.60
37452;BMP280;23314;51.114;6.900;2022-11-27T11:43:02;101697.66;;;11.67
37452;BMP280;23314;51.114;6.900;2022-11-27T11:45:31;101690.03;;;11.69
37452;BMP280;23314;51.114;6.900;2022-11-27T11:48:14;101664.81;;;11.70
37452;BMP280;23314;51.114;6.900;2022-11-27T11:50:52;101641.53;;;11.60
37452;BMP280;23314;51.114;6.900;2022-11-27T11:53:35;101653.06;;;11.50
37452;BMP280;23314;51.114;6.900;2022-11-27T11:58:33;101643.13;;;11.39
37452;BMP280;23314;51.114;6.900;2022-11-27T12:11:56;101609.13;;;11.54
37452;BMP280;23314;51.114;6.900;2022-11-27T12:22:45;101581.97;;;11.70
37452;BMP280;23314;51.114;6.900;2022-11-27T12:25:21;101568.97;;;11.72
37452;BMP280;23314;51.114;6.900;2022-11-27T12:28:13;101571.66;;;11.72
37452;BMP280;23314;51.114;6.900;2022-11-27T12:31:05;101570.50;;;11.73
37452;BMP280;23314;51.114;6.900;2022-11-27T12:33:44;101568.94;;;11.80
37452;BMP280;23314;51.114;6.900;2022-11-27T12:42:16;101555.16;;;11.88
37452;BMP280;23314;51.114;6.900;2022-11-27T12:45:03;101557.78;;;11.92
37452;BMP280;23314;51.114;6.900;2022-11-27T12:47:37;101557.03;;;11.95
37452;BMP280;23314;51.114;6.900;2022-11-27T12:50:21;101549.34;;;11.97
37452;BMP280;23314;51.114;6.900;2022-11-27T12:53:21;101538.25;;;11.99
37452;BMP280;23314;51.114;6.900;2022-11-27T12:58:54;101548.16;;;12.05
37452;BMP280;23314;51.114;6.900;2022-11-27T13:01:35;101554.25;;;12.10
37452;BMP280;23314;51.114;6.900;2022-11-27T13:04:20;101537.38;;;12.16
37452;BMP280;23314;51.114;6.900;2022-11-27T13:07:27;101527.47;;;12.17
37452;BMP280;23314;51.114;6.900;2022-11-27T13:10:02;101517.91;;;12.16
37452;BMP280;23314;51.114;6.900;2022-11-27T13:12:37;101518.28;;;12.18
37452;BMP280;23314;51.114;6.900;2022-11-27T13:16:14;101511.38;;;12.20
37452;BMP280;23314;51.114;6.900;2022-11-27T13:18:17;101502.59;;;12.20
37452;BMP280;23314;51.114;6.900;2022-11-27T13:20:45;101502.63;;;12.16
37452;BMP280;23314;51.114;6.900;2022-11-27T13:23:11;101494.22;;;12.18
37452;BMP280;23314;51.114;6.900;2022-11-27T13:25:47;101493.41;;;12.21
37452;BMP280;23314;51.114;6.900;2022-11-27T13:28:29;101494.53;;;12.23
37452;BMP280;23314;51.114;6.900;2022-11-27T13:30:59;101487.66;;;12.26
37452;BMP280;23314;51.114;6.900;2022-11-27T13:33:40;101487.25;;;12.28
37452;BMP280;23314;51.114;6.900;2022-11-27T13:36:26;101482.69;;;12.25
37452;BMP280;23314;51.114;6.900;2022-11-27T13:39:00;101485.00;;;12.22
37452;BMP280;23314;51.114;6.900;2022-11-27T13:41:37;101478.13;;;12.21
37452;BMP280;23314;51.114;6.900;2022-11-27T13:44:20;101472.81;;;12.18
37452;BMP280;23314;51.114;6.900;2022-11-27T13:46:47;101478.16;;;12.14
37452;BMP280;23314;51.114;6.900;2022-11-27T13:49:30;101479.00;;;12.07
37452;BMP280;23314;51.114;6.900;2022-11-27T13:52:16;101496.97;;;12.07
37452;BMP280;23314;51.114;6.900;2022-11-27T13:54:56;101493.91;;;12.05
37452;BMP280;23314;51.114;6.900;2022-11-27T13:57:22;101488.63;;;12.01
37452;BMP280;23314;51.114;6.900;2022-11-27T13:59:58;101491.69;;;11.96
37452;BMP280;23314;51.114;6.900;2022-11-27T14:02:26;101482.16;;;11.95
37452;BMP280;23314;51.114;6.900;2022-11-27T14:05:03;101481.00;;;11.93
37452;BMP280;23314;51.114;6.900;2022-11-27T14:07:58;101476.84;;;11.88
37452;BMP280;23314;51.114;6.900;2022-11-27T14:10:30;101479.13;;;11.86
37452;BMP280;23314;51.114;6.900;2022-11-27T14:16:33;101458.19;;;11.77
37452;BMP280;23314;51.114;6.900;2022-11-27T14:19:03;101447.56;;;11.73
37452;BMP280;23314;51.114;6.900;2022-11-27T14:24:25;101450.25;;;11.66
37452;BMP280;23314;51.114;6.900;2022-11-27T14:26:52;101446.81;;;11.62
37452;BMP280;23314;51.114;6.900;2022-11-27T14:29:22;101460.97;;;11.59
37452;BMP280;23314;51.114;6.900;2022-11-27T14:32:01;101467.09;;;11.56
37452;BMP280;23314;51.114;6.900;2022-11-27T14:34:33;101481.25;;;11.53
37452;BMP280;23314;51.114;6.900;2022-11-27T14:36:59;101493.09;;;11.52
37452;BMP280;23314;51.114;6.900;2022-11-27T14:42:05;101481.63;;;11.51
37452;BMP280;23314;51.114;6.900;2022-11-27T14:44:32;101474.03;;;11.50
37452;BMP280;23314;51.114;6.900;2022-11-27T14:47:17;101498.44;;;11.48
37452;BMP280;23314;51.114;6.900;2022-11-27T14:49:54;101497.69;;;11.48
37452;BMP280;23314;51.114;6.900;2022-11-27T14:56:06;101484.75;;;11.43
37452;BMP280;23314;51.114;6.900;2022-11-27T14:58:32;101477.13;;;11.41
37452;BMP280;23314;51.114;6.900;2022-11-27T15:01:03;101473.28;;;11.42
37452;BMP280;23314;51.114;6.900;2022-11-27T15:03:29;101464.88;;;11.36
37452;BMP280;23314;51.114;6.900;2022-11-27T15:05:56;101462.63;;;11.35
37452;BMP280;23314;51.114;6.900;2022-11-27T15:08:22;101442.03;;;11.32
37452;BMP280;23314;51.114;6.900;2022-11-27T15:10:51;101430.22;;;11.25
37452;BMP280;23314;51.114;6.900;2022-11-27T15:13:28;101438.28;;;11.18
37452;BMP280;23314;51.114;6.900;2022-11-27T15:18:24;101455.50;;;11.10
37452;BMP280;23314;51.114;6.900;2022-11-27T15:20:51;101461.59;;;11.07
37452;BMP280;23314;51.114;6.900;2022-11-27T15:23:20;101464.28;;;11.03
37452;BMP280;23314;51.114;6.900;2022-11-27T15:28:33;101452.47;;;10.97
37452;BMP280;23314;51.114;6.900;2022-11-27T15:31:00;101444.47;;;10.94
37452;BMP280;23314;51.114;6.900;2022-11-27T15:33:28;101444.47;;;10.90
37452;BMP280;23314;51.114;6.900;2022-11-27T15:36:14;101432.28;;;10.85
37452;BMP280;23314;51.114;6.900;2022-11-27T15:38:40;101430.78;;;10.81
37452;BMP280;23314;51.114;6.900;2022-11-27T15:41:18;101421.63;;;10.74
37452;BMP280;23314;51.114;6.900;2022-11-27T15:43:44;101409.44;;;10.66
37452;BMP280;23314;51.114;6.900;2022-11-27T15:46:11;101402.63;;;10.58